Time;durP1;ratioP1;P1;durP2;ratioP2;P2;SDS_P1;SDS_P2;PMS_P1;PMS_P2;Temp;Humidity;BMP_temperature;BMP_pressure;BME280_temperature;BME280_humidity;BME280_pressure;Samples;Min_cycle;Max_cycle;Signal;HPM_P1;HPM_P2
2022/11/26 00:02:25;;;;;;;16.38;5.13;;;;;;;-143.48;90.52;80299.25;5054952;28;20104;-73
2022/11/26 00:04:53;;;;;;;23.95;6.00;;;;;;;-143.48;90.21;80311.16;5053220;28;20059;-72
2022/11/26 00:07:21;;;;;;;18.95;5.30;;;;;;;-143.48;90.61;80309.19;5054727;28;20031;-72
2022/11/26 00:09:47;;;;;;;17.65;5.32;;;;;;;-143.48;90.53;80315.13;5054607;28;20037;-72
2022/11/26 00:12:16;;;;;;;20.85;5.30;;;;;;;-143.48;90.43;80325.06;5054520;28;20052;-72
2022/11/26 00:14:42;;;;;;;21.38;6.13;;;;;;;-143.48;90.78;80323.06;5054542;28;20032;-73
2022/11/26 00:17:12;;;;;;;22.60;5.97;;;;;;;-143.48;90.87;80340.94;5054377;28;20406;-72
2022/11/26 00:19:37;;;;;;;27.42;6.03;;;;;;;-143.48;91.40;80356.81;5054095;28;20477;-72
2022/11/26 00:22:02;;;;;;;21.13;5.47;;;;;;;-143.48;91.47;80334.97;5054190;28;20024;-72
2022/11/26 00:24:29;;;;;;;20.15;5.68;;;;;;;-143.48;91.49;80344.91;5054047;28;20053;-73
2022/11/26 00:26:56;;;;;;;23.70;6.22;;;;;;;-143.48;91.75;80354.81;5054682;28;20033;-73
2022/11/26 00:29:22;;;;;;;21.15;5.50;;;;;;;-143.48;91.59;80336.97;5054738;28;20048;-72
2022/11/26 00:31:47;;;;;;;22.45;6.18;;;;;;;-143.48;91.67;80344.91;5055520;28;20029;-72
2022/11/26 00:34:13;;;;;;;18.85;5.78;;;;;;;-143.48;91.44;80358.78;5054578;28;20017;-73
2022/11/26 00:36:38;;;;;;;19.88;5.70;;;;;;;-143.48;91.64;80360.78;5054874;28;20028;-72
2022/11/26 00:39:11;;;;;;;21.35;5.15;;;;;;;-143.48;91.77;80360.78;5054372;28;20040;-73
2022/11/26 00:41:38;;;;;;;18.70;5.13;;;;;;;-143.48;91.75;80350.84;5052643;28;20028;-73
2022/11/26 00:44:21;;;;;;;14.68;4.78;;;;;;;-143.48;91.94;80354.81;5052580;28;20024;-73
2022/11/26 00:46:47;;;;;;;14.43;4.53;;;;;;;-143.48;92.01;80366.72;5054281;28;20051;-72
2022/11/26 00:49:12;;;;;;;20.50;4.88;;;;;;;-143.48;92.42;80360.78;5053488;28;20457;-73
2022/11/26 00:51:38;;;;;;;19.50;5.35;;;;;;;-143.48;92.29;80368.72;5052678;28;20036;-72
2022/11/26 00:54:04;;;;;;;22.73;5.07;;;;;;;-143.48;92.14;80356.81;5053728;28;20526;-72
2022/11/26 00:56:30;;;;;;;19.58;4.88;;;;;;;-143.48;92.13;80372.69;5053947;28;20052;-72
2022/11/26 00:58:55;;;;;;;20.55;4.55;;;;;;;-143.48;92.23;80364.75;5053765;28;20032;-73
2022/11/26 01:01:23;;;;;;;19.35;5.13;;;;;;;-143.48;91.92;80352.84;5051982;28;20028;-73
2022/11/26 01:03:48;;;;;;;17.88;4.72;;;;;;;-143.48;91.93;80352.84;5052506;28;20017;-72
2022/11/26 01:06:21;;;;;;;23.92;5.85;;;;;;;-143.48;91.94;80366.72;5053648;28;20464;-72
2022/11/26 01:08:46;;;;;;;17.52;4.72;;;;;;;-143.48;92.05;80370.69;5053901;28;20037;-72
2022/11/26 01:11:15;;;;;;;19.20;4.80;;;;;;;-143.48;92.75;80386.56;5053943;28;20483;-72
2022/11/26 01:13:42;;;;;;;25.27;5.43;;;;;;;-143.48;92.97;80390.53;5053636;28;20071;-74
2022/11/26 01:16:25;;;;;;;20.73;4.60;;;;;;;-143.48;92.73;80382.59;5053184;28;20028;-72
2022/11/26 01:18:52;;;;;;;;;;;;;;;-143.48;92.64;80376.66;5054418;28;20349;-72
2022/11/26 01:21:18;;;;;;;26.48;4.88;;;;;;;-143.48;92.35;80384.59;5052279;28;19909;-72
2022/11/26 01:23:44;;;;;;;13.20;4.50;;;;;;;-143.48;92.68;80380.63;5053793;28;20021;-72
2022/11/26 01:26:24;;;;;;;18.70;4.95;;;;;;;-143.48;92.60;80382.59;5055774;28;20407;-72
2022/11/26 01:28:50;;;;;;;24.50;5.18;;;;;;;-143.48;92.38;80374.66;5052635;28;20083;-72
2022/11/26 01:31:18;;;;;;;17.05;4.45;;;;;;;-143.48;92.36;80384.59;5052806;28;20025;-72
2022/11/26 01:33:44;;;;;;;18.17;5.05;;;;;;;-143.48;92.34;80374.66;5054170;28;20094;-72
2022/11/26 01:36:22;;;;;;;21.08;4.80;;;;;;;-143.48;92.17;80396.50;5053851;28;20029;-72
2022/11/26 01:38:47;;;;;;;18.92;4.75;;;;;;;-143.48;92.29;80392.53;5053516;28;20080;-72
2022/11/26 01:41:26;;;;;;;21.48;5.68;;;;;;;-143.48;92.63;80402.44;5053504;28;20476;-72
2022/11/26 01:43:51;;;;;;;21.27;5.22;;;;;;;-143.48;92.98;80400.47;5053411;28;20096;-72
2022/11/26 01:46:19;;;;;;;20.15;4.68;;;;;;;-143.48;92.87;80412.38;5053316;28;20055;-72
2022/11/26 01:48:46;;;;;;;17.75;5.18;;;;;;;-143.48;92.61;80408.41;5053500;28;20047;-72
2022/11/26 01:51:14;;;;;;;17.33;4.53;;;;;;;-143.48;92.60;80418.31;5052029;28;20021;-72
2022/11/26 01:53:45;;;;;;;22.52;4.85;;;;;;;-143.48;92.89;80422.28;5053437;28;20024;-72
2022/11/26 01:56:31;;;;;;;20.25;4.68;;;;;;;-143.48;92.57;80416.34;5052962;28;20198;-72
2022/11/26 01:59:06;;;;;;;26.88;5.25;;;;;;;-143.48;92.68;80420.31;5052304;28;20392;-72
2022/11/26 02:01:32;;;;;;;22.38;5.00;;;;;;;-143.48;92.90;80420.31;5056818;28;20025;-73
2022/11/26 02:04:16;;;;;;;13.00;4.93;;;;;;;-143.48;92.43;80414.34;5055706;28;20025;-73
2022/11/26 02:06:44;;;;;;;12.25;4.40;;;;;;;-143.48;92.71;80412.38;5056214;28;20029;-72
2022/11/26 02:09:11;;;;;;;18.67;4.82;;;;;;;-143.48;92.81;80404.44;5057428;28;20127;-73
2022/11/26 02:11:37;;;;;;;21.85;4.90;;;;;;;-143.48;93.14;80392.53;5056854;28;20032;-72
2022/11/26 02:14:14;;;;;;;23.63;4.90;;;;;;;-143.48;92.81;80402.44;5056961;28;20017;-72
2022/11/26 02:16:52;;;;;;;23.42;5.15;;;;;;;-143.48;92.95;80394.50;5056811;28;20512;-73
2022/11/26 02:19:39;;;;;;;22.17;5.20;;;;;;;-143.48;93.31;80376.66;5055775;28;20043;-73
2022/11/26 02:22:36;;;;;;;21.55;4.90;;;;;;;-143.48;92.79;80390.53;5055758;28;20509;-73
2022/11/26 02:25:18;;;;;;;19.45;4.43;;;;;;;-143.48;92.75;80398.47;5055417;28;20051;-73
2022/11/26 02:28:17;;;;;;;13.32;4.53;;;;;;;-143.48;93.24;80404.44;5057060;28;20075;-73
2022/11/26 02:30:49;;;;;;;25.02;5.25;;;;;;;-143.48;93.22;80398.47;5055547;28;20029;-73
2022/11/26 02:33:20;;;;;;;21.95;5.03;;;;;;;-143.48;93.12;80408.41;5056720;28;20025;-73
2022/11/26 02:35:49;;;;;;;21.00;5.15;;;;;;;-143.48;93.09;80408.41;5056765;28;20366;-73
2022/11/26 02:38:29;;;;;;;22.30;5.57;;;;;;;-143.48;93.23;80418.31;5056771;28;20484;-73
2022/11/26 02:40:54;;;;;;;21.48;5.00;;;;;;;-143.48;93.35;80412.38;5056378;28;20020;-73
2022/11/26 02:43:20;;;;;;;16.10;4.88;;;;;;;-143.48;93.02;80418.31;5056403;28;20098;-73
2022/11/26 02:45:49;;;;;;;16.35;4.82;;;;;;;-143.48;92.91;80430.22;5056494;28;20032;-73
2022/11/26 02:48:22;;;;;;;17.38;4.90;;;;;;;-143.48;93.11;80448.06;5054666;28;20472;-73
2022/11/26 02:50:56;;;;;;;20.30;5.40;;;;;;;-143.48;93.48;80444.13;5055754;28;20086;-73
2022/11/26 02:53:24;;;;;;;16.00;4.97;;;;;;;-143.48;93.06;80452.03;5054834;28;20025;-73
2022/11/26 02:56:00;;;;;;;20.70;4.85;;;;;;;-143.48;93.53;80452.03;5056138;28;20051;-73
2022/11/26 02:58:25;;;;;;;14.07;4.80;;;;;;;-143.48;93.61;80446.09;5056259;28;20460;-73
2022/11/26 03:00:53;;;;;;;23.88;5.88;;;;;;;-143.48;93.66;80436.19;5054467;28;20107;-73
2022/11/26 03:03:25;;;;;;;20.55;5.65;;;;;;;-143.48;93.85;80448.06;5054552;28;20044;-74
2022/11/26 03:05:57;;;;;;;17.05;5.18;;;;;;;-143.48;93.79;80458.00;5055877;28;20546;-73
2022/11/26 03:08:25;;;;;;;25.45;5.57;;;;;;;-143.48;93.40;80448.06;5056122;28;20465;-73
2022/11/26 03:10:50;;;;;;;23.88;6.10;;;;;;;-143.48;93.45;80450.06;5055384;28;20024;-73
2022/11/26 03:13:16;;;;;;;18.33;5.50;;;;;;;-143.48;93.55;80450.06;5053359;28;20086;-73
2022/11/26 03:15:41;;;;;;;22.73;5.55;;;;;;;-143.48;93.14;80461.97;5055582;28;20108;-73
2022/11/26 03:18:06;;;;;;;17.30;5.45;;;;;;;-143.48;93.25;80454.03;5055679;28;20028;-73
2022/11/26 03:20:31;;;;;;;26.50;5.95;;;;;;;-143.48;93.34;80463.94;5055426;28;20021;-73
2022/11/26 03:22:57;;;;;;;19.15;6.07;;;;;;;-143.48;93.46;80458.00;5055110;28;20139;-73
2022/11/26 03:25:22;;;;;;;20.67;6.78;;;;;;;-143.48;93.40;80467.91;5054225;28;20067;-73
2022/11/26 03:27:47;;;;;;;18.10;5.32;;;;;;;-143.48;93.21;80458.00;5054236;28;20060;-73
2022/11/26 03:30:13;;;;;;;22.45;5.88;;;;;;;-143.48;93.38;80458.00;5053798;28;20036;-73
2022/11/26 03:32:38;;;;;;;19.30;6.07;;;;;;;-143.48;93.45;80452.03;5055107;28;20021;-73
2022/11/26 03:35:04;;;;;;;17.05;6.38;;;;;;;-143.48;93.63;80454.03;5055299;28;20029;-73
2022/11/26 03:37:29;;;;;;;19.10;5.97;;;;;;;-143.48;93.56;80463.94;5055034;28;20096;-71
2022/11/26 03:39:55;;;;;;;24.27;5.90;;;;;;;-143.48;93.50;80473.88;5053587;28;20044;-71
2022/11/26 03:42:20;;;;;;;15.98;5.88;;;;;;;-143.48;93.38;80483.78;5053715;28;20017;-71
2022/11/26 03:44:45;;;;;;;25.92;5.70;;;;;;;-143.48;93.06;80491.72;5055104;28;20029;-72
2022/11/26 03:47:10;;;;;;;16.00;5.45;;;;;;;-143.48;93.19;80509.59;5054596;28;20039;-72
2022/11/26 03:49:36;;;;;;;24.30;5.63;;;;;;;-143.48;93.54;80521.50;5054487;28;20025;-72
2022/11/26 03:52:01;;;;;;;18.13;5.72;;;;;;;-143.48;94.26;80531.41;5053217;28;20506;-72
2022/11/26 03:54:26;;;;;;;20.35;6.13;;;;;;;-143.48;94.48;80539.34;5054547;28;20057;-71
2022/11/26 03:56:52;;;;;;;20.80;6.15;;;;;;;-143.48;94.32;80519.50;5054493;28;20025;-71
2022/11/26 03:59:17;;;;;;;17.70;5.90;;;;;;;-143.48;93.91;80519.50;5054647;28;20508;-72
2022/11/26 04:01:43;;;;;;;22.15;5.93;;;;;;;-143.48;93.78;80515.53;5053443;28;20078;-72
2022/11/26 04:04:08;;;;;;;15.85;5.70;;;;;;;-143.48;93.42;80539.34;5052944;28;20024;-73
2022/11/26 04:06:33;;;;;;;23.70;6.07;;;;;;;-143.48;93.79;80547.28;5053053;28;20048;-72
2022/11/26 04:08:59;;;;;;;32.22;6.38;;;;;;;-143.48;94.08;80549.28;5051527;28;20079;-72
2022/11/26 04:11:24;;;;;;;24.23;6.90;;;;;;;-143.48;94.56;80563.16;5051448;28;20064;-72
2022/11/26 04:13:49;;;;;;;23.55;6.70;;;;;;;-143.48;94.74;80549.28;5052914;28;20028;-72
2022/11/26 04:16:15;;;;;;;23.23;6.50;;;;;;;-143.48;94.27;80551.25;5053271;28;20457;-71
2022/11/26 04:18:40;;;;;;;23.67;6.35;;;;;;;-143.48;93.79;80557.22;5054281;28;20047;-72
2022/11/26 04:21:06;;;;;;;20.23;6.43;;;;;;;-143.48;93.76;80543.31;5054322;28;20027;-72
2022/11/26 04:23:32;;;;;;;20.33;6.13;;;;;;;-143.48;93.56;80569.13;5052303;28;20144;-72
2022/11/26 04:25:57;;;;;;;20.92;6.30;;;;;;;-143.48;94.10;80547.28;5053949;28;20076;-72
2022/11/26 04:28:23;;;;;;;16.95;7.03;;;;;;;-143.48;94.19;80553.25;5054047;28;20025;-72
2022/11/26 04:30:48;;;;;;;21.77;6.55;;;;;;;-143.48;94.27;80559.19;5052749;28;20021;-72
2022/11/26 04:33:13;;;;;;;23.50;7.15;;;;;;;-143.48;94.36;80553.25;5053966;28;20427;-72
2022/11/26 04:35:39;;;;;;;20.38;6.78;;;;;;;-143.48;94.15;80555.22;5053870;28;20024;-71
2022/11/26 04:38:04;;;;;;;15.88;6.32;;;;;;;-143.48;94.64;80557.22;5052474;28;20116;-71
2022/11/26 04:40:29;;;;;;;33.40;6.97;;;;;;;-143.48;94.97;80557.22;5052348;28;20094;-71
2022/11/26 04:42:54;;;;;;;24.75;7.05;;;;;;;-143.48;94.61;80547.28;5053958;28;20027;-71
2022/11/26 04:45:20;;;;;;;22.83;6.85;;;;;;;-143.48;94.49;80565.16;5052469;28;20074;-72
2022/11/26 04:47:45;;;;;;;16.70;7.20;;;;;;;-143.48;94.63;80571.09;5052425;28;20067;-72
2022/11/26 04:50:10;;;;;;;27.45;7.35;;;;;;;-143.48;94.85;80567.13;5053457;28;20045;-73
2022/11/26 04:52:36;;;;;;;25.88;6.88;;;;;;;-143.48;94.56;80567.13;5052433;28;20026;-72
2022/11/26 04:55:01;;;;;;;23.20;7.38;;;;;;;-143.48;94.74;80569.13;5053480;28;20024;-72
2022/11/26 04:57:26;;;;;;;26.52;7.13;;;;;;;-143.48;94.96;80577.06;5051864;28;20159;-72
2022/11/26 04:59:52;;;;;;;18.33;6.88;;;;;;;-143.48;94.87;80577.06;5053472;28;20020;-72
2022/11/26 05:02:17;;;;;;;24.92;8.07;;;;;;;-143.48;94.56;80581.03;5053393;28;20021;-72
2022/11/26 05:04:42;;;;;;;26.40;7.13;;;;;;;-143.48;94.86;80583.00;5053290;28;20072;-72
2022/11/26 05:07:08;;;;;;;27.85;6.90;;;;;;;-143.48;94.51;80577.06;5053282;28;20166;-73
2022/11/26 05:09:33;;;;;;;18.35;7.60;;;;;;;-143.48;94.28;80577.06;5053213;28;20147;-73
2022/11/26 05:11:58;;;;;;;25.77;7.40;;;;;;;-143.48;94.70;80583.00;5052953;28;20025;-73
2022/11/26 05:14:24;;;;;;;21.77;7.38;;;;;;;-143.48;94.82;80590.94;5053592;28;20028;-72
2022/11/26 05:16:49;;;;;;;25.77;7.50;;;;;;;-143.48;94.88;80586.97;5051812;28;20021;-72
2022/11/26 05:19:15;;;;;;;23.63;7.55;;;;;;;-143.48;94.72;80600.88;5051946;28;20041;-72
2022/11/26 05:21:41;;;;;;;29.33;7.10;;;;;;;-143.48;95.18;80598.88;5051917;28;20029;-72
2022/11/26 05:24:06;;;;;;;24.05;7.60;;;;;;;-143.48;95.01;80586.97;5053134;28;20107;-73
2022/11/26 05:26:31;;;;;;;25.15;7.40;;;;;;;-143.48;94.85;80583.00;5051633;28;20061;-71
2022/11/26 05:28:57;;;;;;;19.38;7.18;;;;;;;-143.48;94.36;80575.06;5051582;28;20038;-71
2022/11/26 05:31:22;;;;;;;24.67;7.50;;;;;;;-143.48;94.41;80583.00;5052825;28;20035;-72
2022/11/26 05:33:47;;;;;;;25.00;7.43;;;;;;;-143.48;94.72;80585.00;5051451;28;20063;-73
2022/11/26 05:36:12;;;;;;;26.92;7.25;;;;;;;-143.48;94.62;80592.94;5053572;28;20057;-73
2022/11/26 05:38:38;;;;;;;25.58;8.02;;;;;;;-143.48;95.05;80585.00;5055708;28;20025;-73
2022/11/26 05:41:03;;;;;;;28.65;8.13;;;;;;;-143.48;94.54;80596.91;5055669;28;20039;-73
2022/11/26 05:43:28;;;;;;;22.60;7.82;;;;;;;-143.48;94.78;80600.88;5055449;28;20648;-73
2022/11/26 05:45:54;;;;;;;24.67;7.53;;;;;;;-143.48;94.92;80614.75;5054157;28;20058;-73
2022/11/26 05:48:19;;;;;;;20.90;7.97;;;;;;;-143.48;94.94;118439.88;5055481;28;20491;-73
2022/11/26 05:50:44;;;;;;;26.30;8.20;;;;;;;-143.48;94.87;118439.88;5054826;28;20056;-73
2022/11/26 05:53:10;;;;;;;21.20;7.68;;;;;;;-143.48;94.49;118439.88;5056739;28;20071;-73
2022/11/26 05:55:35;;;;;;;29.08;8.00;;;;;;;-143.48;94.92;118439.88;5056844;28;20100;-73
2022/11/26 05:58:00;;;;;;;27.05;8.23;;;;;;;-143.48;94.66;118439.88;5056875;28;20021;-73
2022/11/26 06:00:26;;;;;;;31.23;8.27;;;;;;;-143.48;94.98;118439.88;5056631;28;20071;-73
2022/11/26 06:02:51;;;;;;;21.35;8.15;;;;;;;-143.48;94.87;118439.88;5056898;28;20033;-73
2022/11/26 06:05:16;;;;;;;30.58;9.60;;;;;;;-143.48;94.89;118439.88;5056710;28;20033;-73
2022/11/26 06:07:42;;;;;;;26.73;7.43;;;;;;;-143.48;95.03;118439.88;5055148;28;20032;-73
2022/11/26 06:10:07;;;;;;;20.42;7.97;;;;;;;-143.48;94.91;118439.88;5056517;28;20036;-72
2022/11/26 06:12:33;;;;;;;27.27;8.13;;;;;;;-143.48;95.24;118439.88;5056584;28;20025;-74
2022/11/26 06:14:58;;;;;;;23.38;8.23;;;;;;;-143.48;95.22;118439.88;5056436;28;20527;-73
2022/11/26 06:17:24;;;;;;;24.02;8.45;;;;;;;-143.48;94.69;118439.88;5055015;28;20029;-74
2022/11/26 06:19:49;;;;;;;28.83;8.32;;;;;;;-143.48;94.91;118439.88;5055069;28;20032;-73
2022/11/26 06:22:14;;;;;;;27.98;8.45;;;;;;;-143.48;95.04;118439.88;5056555;28;20083;-73
2022/11/26 06:24:40;;;;;;;30.35;8.95;;;;;;;-143.48;95.19;118439.88;5054787;28;20108;-73
2022/11/26 06:27:05;;;;;;;27.13;8.30;;;;;;;-143.48;94.65;118439.88;5056032;28;20071;-73
2022/11/26 06:29:30;;;;;;;18.63;8.25;;;;;;;-143.48;94.56;118439.88;5055807;28;20025;-73
2022/11/26 06:31:56;;;;;;;32.63;8.63;;;;;;;-143.48;95.16;118439.88;5054730;28;20124;-73
2022/11/26 06:34:21;;;;;;;33.90;9.30;;;;;;;-143.48;95.07;118439.88;5054895;28;20048;-73
2022/11/26 06:36:47;;;;;;;27.05;8.48;;;;;;;-143.48;94.89;118439.88;5056091;28;20036;-73
2022/11/26 06:39:12;;;;;;;26.40;9.23;;;;;;;-143.48;94.98;118439.88;5055978;28;20028;-73
2022/11/26 06:41:37;;;;;;;34.63;9.25;;;;;;;-143.48;95.21;118439.88;5054299;28;20021;-73
2022/11/26 06:44:03;;;;;;;33.95;10.70;;;;;;;-143.48;94.78;118439.88;5055760;28;20017;-73
2022/11/26 06:46:28;;;;;;;24.95;9.38;;;;;;;-143.48;95.16;118439.88;5054573;28;20033;-73
2022/11/26 06:48:54;;;;;;;30.10;9.30;;;;;;;-143.48;95.27;118439.88;5054397;28;20027;-73
2022/11/26 06:51:20;;;;;;;28.98;9.55;;;;;;;-143.48;95.83;118439.88;5055349;28;20031;-73
2022/11/26 06:53:47;;;;;;;31.70;9.77;;;;;;;-143.48;95.74;118439.88;5055556;28;20017;-73
2022/11/26 06:56:14;;;;;;;33.10;9.85;;;;;;;-143.48;95.84;118439.88;5055666;28;20070;-73
2022/11/26 06:58:39;;;;;;;37.00;11.43;;;;;;;-143.48;95.91;118439.88;5055728;28;20483;-73
2022/11/26 07:01:19;;;;;;;31.95;10.77;;;;;;;-143.48;95.73;118439.88;5055868;28;20028;-73
2022/11/26 07:03:45;;;;;;;29.83;10.40;;;;;;;-143.48;95.78;118439.88;5054122;28;20079;-73
2022/11/26 07:06:19;;;;;;;32.30;9.90;;;;;;;-143.48;95.24;118439.88;5055409;28;20086;-73
2022/11/26 07:08:45;;;;;;;38.95;10.75;;;;;;;-143.48;95.60;118439.88;5055736;28;20035;-73
2022/11/26 07:11:11;;;;;;;32.55;9.90;;;;;;;-143.48;95.63;118439.88;5054885;28;20028;-73
2022/11/26 07:13:36;;;;;;;30.50;10.52;;;;;;;-143.48;95.33;118439.88;5053802;28;20124;-73
2022/11/26 07:16:05;;;;;;;33.40;10.45;;;;;;;-143.48;94.95;118439.88;5053963;28;20083;-73
2022/11/26 07:18:31;;;;;;;28.35;10.23;;;;;;;-143.48;94.64;118439.88;5053914;28;20029;-73
2022/11/26 07:20:56;;;;;;;29.73;9.63;;;;;;;-143.48;94.38;118439.88;5052581;28;20033;-73
2022/11/26 07:23:22;;;;;;;29.42;9.85;;;;;;;-143.48;93.79;118439.88;5052463;28;20024;-74
2022/11/26 07:25:47;;;;;;;34.92;9.85;;;;;;;-143.48;94.19;118439.88;5053736;28;20454;-74
2022/11/26 07:28:12;;;;;;;27.25;9.75;;;;;;;-143.48;94.49;118439.88;5053776;28;20028;-74
2022/11/26 07:30:38;;;;;;;36.83;10.18;;;;;;;-143.48;94.64;118439.88;5053719;28;20025;-73
2022/11/26 07:33:03;;;;;;;37.00;9.98;;;;;;;-143.48;94.48;118439.88;5052270;28;20017;-74
2022/11/26 07:35:31;;;;;;;32.63;10.07;;;;;;;-143.48;93.98;118439.88;5052619;28;20025;-73
2022/11/26 07:37:57;;;;;;;33.58;10.13;;;;;;;-143.48;94.34;118439.88;5054632;28;20028;-73
2022/11/26 07:40:22;;;;;;;29.63;9.70;;;;;;;-143.48;94.05;118439.88;5054543;28;20029;-72
2022/11/26 07:42:47;;;;;;;37.13;10.20;;;;;;;-143.48;94.02;118439.88;5054468;28;20043;-73
2022/11/26 07:45:13;;;;;;;31.55;10.43;;;;;;;-143.48;94.31;118439.88;5054763;28;20108;-72
2022/11/26 07:47:38;;;;;;;30.27;9.40;;;;;;;-143.48;94.13;118439.88;5054757;28;20043;-73
2022/11/26 07:50:04;;;;;;;36.05;10.32;;;;;;;-143.48;94.01;118439.88;5053590;28;20535;-72
2022/11/26 07:52:29;;;;;;;29.55;10.63;;;;;;;-143.48;93.84;118439.88;5054440;28;20029;-73
2022/11/26 07:54:54;;;;;;;34.30;10.40;;;;;;;-143.48;93.53;118439.88;5053296;28;20021;-73
2022/11/26 07:57:21;;;;;;;37.90;10.57;;;;;;;-143.48;93.76;118439.88;5054160;28;20380;-73
2022/11/26 07:59:46;;;;;;;36.85;10.23;;;;;;;-143.48;93.31;118439.88;5053203;28;20032;-71
2022/11/26 08:02:15;;;;;;;29.63;9.85;;;;;;;-143.48;93.32;118439.88;5053245;28;20503;-71
2022/11/26 08:04:41;;;;;;;32.60;9.25;;;;;;;-143.48;93.00;118439.88;5053208;28;20045;-72
2022/11/26 08:07:06;;;;;;;28.70;9.48;;;;;;;-143.48;93.32;118439.88;5054458;28;20465;-71
2022/11/26 08:09:31;;;;;;;35.55;9.57;;;;;;;-143.48;93.25;118439.88;5054330;28;20457;-71
2022/11/26 08:11:57;;;;;;;33.50;9.57;;;;;;;-143.48;93.27;118439.88;5054558;28;20083;-70
2022/11/26 08:14:22;;;;;;;32.85;9.75;;;;;;;-143.48;93.20;118439.88;5053231;28;20028;-70
2022/11/26 08:16:47;;;;;;;27.42;9.55;;;;;;;-143.48;93.01;118439.88;5054141;28;20021;-71
2022/11/26 08:19:13;;;;;;;34.40;10.13;;;;;;;-143.48;92.52;118439.88;5053988;28;20025;-71
2022/11/26 08:21:39;;;;;;;27.15;9.93;;;;;;;-143.48;92.64;118439.88;5052644;28;20036;-71
2022/11/26 08:24:06;;;;;;;33.17;9.65;;;;;;;-143.48;92.18;118439.88;5052733;28;20024;-71
2022/11/26 08:26:31;;;;;;;23.33;9.15;;;;;;;-143.48;92.47;118439.88;5053908;28;20080;-71
2022/11/26 08:28:58;;;;;;;35.58;10.02;;;;;;;-143.48;92.91;118439.88;5052789;28;20028;-70
2022/11/26 08:31:26;;;;;;;27.42;9.23;;;;;;;-143.48;93.00;118439.88;5051951;28;20025;-70
2022/11/26 08:33:51;;;;;;;38.88;9.50;;;;;;;-143.48;93.44;118439.88;5053617;28;20059;-71
2022/11/26 08:36:17;;;;;;;29.85;9.32;;;;;;;-143.48;93.00;118439.88;5053743;28;20452;-70
2022/11/26 08:38:42;;;;;;;24.55;9.32;;;;;;;-143.48;92.73;118439.88;5053694;28;20021;-71
2022/11/26 08:41:11;;;;;;;34.60;9.50;;;;;;;-143.48;93.12;118439.88;5053835;28;20043;-71
2022/11/26 08:43:37;;;;;;;30.15;9.30;;;;;;;-143.48;92.60;118439.88;5053443;28;20060;-71
2022/11/26 08:46:03;;;;;;;29.35;9.15;;;;;;;-143.48;92.87;118439.88;5051891;28;20029;-71
2022/11/26 08:48:30;;;;;;;31.98;9.88;;;;;;;-143.48;93.44;118439.88;5053577;28;20077;-71
2022/11/26 08:51:01;;;;;;;38.80;10.93;;;;;;;-143.48;93.41;118439.88;5053469;28;20089;-71
2022/11/26 08:53:28;;;;;;;35.67;9.55;;;;;;;-143.48;93.34;118439.88;5052074;28;20416;-71
2022/11/26 08:55:59;;;;;;;34.28;9.40;;;;;;;-143.48;92.98;118439.88;5053557;28;20108;-71
2022/11/26 08:58:24;;;;;;;30.77;10.30;;;;;;;-143.48;92.43;118439.88;5052262;28;20472;-70
2022/11/26 09:00:50;;;;;;;28.85;9.05;;;;;;;-143.48;92.32;118439.88;5053309;28;20040;-71
2022/11/26 09:03:15;;;;;;;27.00;9.18;;;;;;;-143.48;92.00;118439.88;5052032;28;20363;-70
2022/11/26 09:05:40;;;;;;;28.50;9.00;;;;;;;-143.48;91.63;118439.88;5052067;28;20032;-69
2022/11/26 09:08:05;;;;;;;32.58;9.15;;;;;;;-143.48;91.64;118439.88;5051919;28;20033;-69
2022/11/26 09:10:31;;;;;;;29.95;9.35;;;;;;;-143.48;91.62;118439.88;5052296;28;20021;-69
2022/11/26 09:12:56;;;;;;;28.42;9.52;;;;;;;-143.48;91.40;118439.88;5053111;28;20025;-69
2022/11/26 09:15:21;;;;;;;31.80;8.85;;;;;;;-143.48;91.40;118439.88;5051702;28;20104;-69
2022/11/26 09:17:47;;;;;;;31.70;9.23;;;;;;;-143.48;90.94;118439.88;5051881;28;20033;-69
2022/11/26 09:20:12;;;;;;;26.83;9.20;;;;;;;-143.48;91.03;118439.88;5052980;28;20031;-69
2022/11/26 09:22:37;;;;;;;34.38;9.35;;;;;;;-143.48;90.74;118439.88;5053040;28;20437;-69
2022/11/26 09:25:03;;;;;;;35.53;10.63;;;;;;;-143.48;90.22;118439.88;5052905;28;20128;-70
2022/11/26 09:27:28;;;;;;;26.10;8.65;;;;;;;-143.48;90.65;118439.88;5051440;28;20024;-69
2022/11/26 09:29:53;;;;;;;31.33;9.45;;;;;;;-143.48;90.31;118439.88;5053293;28;20020;-69
2022/11/26 09:32:19;;;;;;;29.83;9.00;;;;;;;-143.48;89.99;118439.88;5052617;28;20029;-69
2022/11/26 09:34:44;;;;;;;25.05;8.93;;;;;;;-143.48;89.86;118439.88;5052882;28;20017;-70
2022/11/26 09:37:09;;;;;;;40.53;8.52;;;;;;;-143.48;89.79;118439.88;5052935;28;20025;-70
2022/11/26 09:39:35;;;;;;;37.20;8.75;;;;;;;-143.48;89.82;118439.88;5052685;28;20033;-70
2022/11/26 09:42:06;;;;;;;34.03;9.23;;;;;;;-143.48;90.36;118439.88;5052768;28;20031;-70
2022/11/26 09:44:52;;;;;;;23.35;8.05;;;;;;;-143.48;90.29;118439.88;5052831;28;20491;-70
2022/11/26 09:47:21;;;;;;;29.45;9.20;;;;;;;-143.48;90.07;118439.88;5051523;28;20055;-70
2022/11/26 09:50:10;;;;;;;27.17;9.00;;;;;;;-143.48;89.01;118439.88;5052759;28;20029;-70
2022/11/26 09:52:41;;;;;;;30.23;8.82;;;;;;;-143.48;87.13;118439.88;5051522;28;20480;-70
2022/11/26 09:55:20;;;;;;;26.60;8.13;;;;;;;-143.48;85.19;118439.88;5052607;28;20475;-72
2022/11/26 09:58:02;;;;;;;32.90;8.60;;;;;;;-143.48;83.37;118439.88;5051344;28;20059;-69
2022/11/26 10:00:34;;;;;;;31.20;8.25;;;;;;;-143.48;82.75;118439.88;5051485;28;20070;-71
2022/11/26 10:02:59;;;;;;;29.17;7.65;;;;;;;-143.48;79.59;118439.88;5051049;28;20025;-70
2022/11/26 10:05:46;;;;;;;27.25;7.57;;;;;;;-143.48;79.10;118439.88;5051379;28;20025;-71
2022/11/26 10:08:29;;;;;;;25.60;8.32;;;;;;;-143.48;84.49;118439.88;5051142;28;20032;-69
2022/11/26 10:11:09;;;;;;;29.13;8.48;;;;;;;-143.48;86.06;118439.88;5051377;28;20029;-71
2022/11/26 10:13:40;;;;;;;31.52;7.97;;;;;;;-143.48;87.42;118439.88;5052896;28;20045;-72
2022/11/26 10:16:19;;;;;;;25.58;8.20;;;;;;;-143.48;86.74;118439.88;5052964;28;20056;-71
2022/11/26 10:19:10;;;;;;;23.27;7.72;;;;;;;-143.48;85.34;118439.88;5051770;28;20095;-71
2022/11/26 10:21:40;;;;;;;28.23;8.43;;;;;;;-143.48;85.04;118439.88;5054869;28;20035;-72
2022/11/26 10:24:25;;;;;;;27.13;8.27;;;;;;;-143.48;87.33;118439.88;5055124;28;20029;-72
2022/11/26 10:26:52;;;;;;;30.20;7.03;;;;;;;-143.48;85.65;118439.88;5056266;28;20052;-72
2022/11/26 10:29:24;;;;;;;28.70;8.10;;;;;;;-143.48;84.15;118439.88;5056281;28;20052;-72
2022/11/26 10:31:55;;;;;;;25.08;7.25;;;;;;;-143.48;80.89;118439.88;5054921;28;20040;-71
2022/11/26 10:34:38;;;;;;;27.63;7.78;;;;;;;-143.48;83.06;118439.88;5055068;28;20101;-71
2022/11/26 10:37:04;;;;;;;21.70;7.80;;;;;;;-143.48;84.66;118439.88;5054645;28;20112;-71
2022/11/26 10:39:29;;;;;;;28.85;7.95;;;;;;;-143.48;78.34;118439.88;5056114;28;20029;-72
2022/11/26 10:41:55;;;;;;;25.50;7.65;;;;;;;-143.48;82.43;118439.88;5055474;28;20028;-72
2022/11/26 10:44:29;;;;;;;27.52;8.05;;;;;;;-143.48;83.69;118439.88;5054217;28;20025;-72
2022/11/26 10:46:55;;;;;;;28.52;7.90;;;;;;;-143.48;84.38;118439.88;5055550;28;20476;-73
2022/11/26 10:49:29;;;;;;;34.10;8.07;;;;;;;-143.48;80.14;118439.88;5054370;28;20031;-72
2022/11/26 10:52:06;;;;;;;30.85;8.02;;;;;;;-143.48;78.92;118439.88;5054275;28;20053;-71
2022/11/26 10:54:34;;;;;;;23.77;7.78;;;;;;;-143.48;76.35;118439.88;5055174;28;20480;-71
2022/11/26 10:57:08;;;;;;;28.90;7.40;;;;;;;-143.48;79.75;118439.88;5054994;28;20116;-72
2022/11/26 10:59:52;;;;;;;22.38;7.10;;;;;;;-143.48;79.68;118439.88;5054985;28;20053;-72
2022/11/26 11:02:21;;;;;;;25.25;7.28;;;;;;;-143.48;80.91;118439.88;5053722;28;20016;-70
2022/11/26 11:04:52;;;;;;;27.58;7.10;;;;;;;-143.48;65.90;118439.88;5053732;28;20025;-72
2022/11/26 11:07:33;;;;;;;22.33;6.82;;;;;;;-143.48;57.64;118439.88;5053750;28;20084;-73
2022/11/26 11:10:07;;;;;;;22.17;6.97;;;;;;;-143.48;60.42;118439.88;5054943;28;20037;-72